sensor_id;sensor_type;location;lat;lon;timestamp;pressure;altitude;pressure_sealevel;temperature;humidity
50364;BME280;36272;59.400;17.982;2024-01-11T00:01:32;101731.75;;;1.65;95.28
50364;BME280;36272;59.400;17.982;2024-01-11T00:06:40;101714.84;;;1.68;95.40
50364;BME280;36272;59.400;17.982;2024-01-11T00:11:42;101722.59;;;1.69;95.17
50364;BME280;36272;59.400;17.982;2024-01-11T00:16:45;101712.19;;;1.68;95.18
50364;BME280;36272;59.400;17.982;2024-01-11T00:21:46;101726.91;;;1.70;95.09
50364;BME280;36272;59.400;17.982;2024-01-11T00:26:48;101718.19;;;1.70;95.40
50364;BME280;36272;59.400;17.982;2024-01-11T00:31:50;101713.59;;;1.72;95.23
50364;BME280;36272;59.400;17.982;2024-01-11T00:36:51;101719.56;;;1.74;95.53
50364;BME280;36272;59.400;17.982;2024-01-11T00:41:53;101719.41;;;1.75;95.54
50364;BME280;36272;59.400;17.982;2024-01-11T00:46:54;101723.72;;;1.76;95.30
50364;BME280;36272;59.400;17.982;2024-01-11T00:51:56;101723.72;;;1.76;95.55
50364;BME280;36272;59.400;17.982;2024-01-11T00:56:57;101720.81;;;1.80;95.53
50364;BME280;36272;59.400;17.982;2024-01-11T01:01:59;101709.28;;;1.81;95.81
50364;BME280;36272;59.400;17.982;2024-01-11T01:07:01;101717.19;;;1.81;95.53
50364;BME280;36272;59.400;17.982;2024-01-11T01:12:02;101710.78;;;1.83;95.63
50364;BME280;36272;59.400;17.982;2024-01-11T01:17:04;101721.22;;;1.85;95.66
50364;BME280;36272;59.400;17.982;2024-01-11T01:22:06;101736.78;;;1.88;95.63
50364;BME280;36272;59.400;17.982;2024-01-11T01:27:11;101719.97;;;1.89;95.70
50364;BME280;36272;59.400;17.982;2024-01-11T01:32:12;101715.50;;;1.89;95.64
50364;BME280;36272;59.400;17.982;2024-01-11T01:37:14;101737.19;;;1.93;95.82
50364;BME280;36272;59.400;17.982;2024-01-11T01:42:15;101743.56;;;1.90;95.67
50364;BME280;36272;59.400;17.982;2024-01-11T01:47:17;101728.84;;;1.88;95.66
50364;BME280;36272;59.400;17.982;2024-01-11T01:52:20;101739.41;;;1.88;95.66
50364;BME280;36272;59.400;17.982;2024-01-11T01:57:22;101744.00;;;1.86;95.84
50364;BME280;36272;59.400;17.982;2024-01-11T02:02:24;101740.50;;;1.85;96.02
50364;BME280;36272;59.400;17.982;2024-01-11T02:07:26;101745.78;;;1.85;95.99
50364;BME280;36272;59.400;17.982;2024-01-11T02:12:29;101728.84;;;1.88;95.93
50364;BME280;36272;59.400;17.982;2024-01-11T02:17:31;101727.31;;;1.85;96.19
50364;BME280;36272;59.400;17.982;2024-01-11T02:22:38;101727.47;;;1.84;96.21
50364;BME280;36272;59.400;17.982;2024-01-11T02:27:45;101734.41;;;1.85;96.34
50364;BME280;36272;59.400;17.982;2024-01-11T02:32:49;101722.03;;;1.85;96.15
50364;BME280;36272;59.400;17.982;2024-01-11T02:37:50;101723.44;;;1.89;96.16
50364;BME280;36272;59.400;17.982;2024-01-11T02:42:52;101751.34;;;1.92;96.23
50364;BME280;36272;59.400;17.982;2024-01-11T02:47:54;101736.34;;;1.92;96.15
50364;BME280;36272;59.400;17.982;2024-01-11T02:52:57;101746.78;;;1.94;96.22
50364;BME280;36272;59.400;17.982;2024-01-11T02:57:58;101738.84;;;1.94;96.12
50364;BME280;36272;59.400;17.982;2024-01-11T03:03:00;101740.53;;;1.95;96.34
50364;BME280;36272;59.400;17.982;2024-01-11T03:08:02;101742.88;;;1.98;96.50
50364;BME280;36272;59.400;17.982;2024-01-11T03:13:06;101729.38;;;2.01;96.61
50364;BME280;36272;59.400;17.982;2024-01-11T03:18:07;101747.56;;;2.04;96.36
50364;BME280;36272;59.400;17.982;2024-01-11T03:23:09;101746.59;;;2.05;96.40
50364;BME280;36272;59.400;17.982;2024-01-11T03:28:10;101748.00;;;2.10;96.40
50364;BME280;36272;59.400;17.982;2024-01-11T03:33:12;101748.56;;;2.13;96.36
50364;BME280;36272;59.400;17.982;2024-01-11T03:38:14;101755.22;;;2.17;96.40
50364;BME280;36272;59.400;17.982;2024-01-11T03:43:18;101726.72;;;2.21;96.51
50364;BME280;36272;59.400;17.982;2024-01-11T03:48:20;101742.00;;;2.27;96.17
50364;BME280;36272;59.400;17.982;2024-01-11T03:53:21;101749.66;;;2.30;96.08
50364;BME280;36272;59.400;17.982;2024-01-11T03:58:23;101752.97;;;2.32;96.01
50364;BME280;36272;59.400;17.982;2024-01-11T04:03:25;101749.91;;;2.37;95.99
50364;BME280;36272;59.400;17.982;2024-01-11T04:08:26;101749.63;;;2.40;95.75
50364;BME280;36272;59.400;17.982;2024-01-11T04:13:28;101751.16;;;2.43;95.96
50364;BME280;36272;59.400;17.982;2024-01-11T04:18:29;101748.75;;;2.49;95.84
50364;BME280;36272;59.400;17.982;2024-01-11T04:23:31;101766.13;;;2.52;95.71
50364;BME280;36272;59.400;17.982;2024-01-11T04:28:33;101759.72;;;2.55;95.57
50364;BME280;36272;59.400;17.982;2024-01-11T04:33:34;101770.16;;;2.56;95.47
50364;BME280;36272;59.400;17.982;2024-01-11T04:38:36;101778.91;;;2.57;95.79
50364;BME280;36272;59.400;17.982;2024-01-11T04:43:42;101816.59;;;2.59;95.66
50364;BME280;36272;59.400;17.982;2024-01-11T04:48:44;101843.28;;;2.65;95.45
50364;BME280;36272;59.400;17.982;2024-01-11T04:53:46;101849.09;;;2.69;95.39
50364;BME280;36272;59.400;17.982;2024-01-11T04:58:48;101868.44;;;2.70;95.56
50364;BME280;36272;59.400;17.982;2024-01-11T05:03:50;101884.97;;;2.72;95.42
50364;BME280;36272;59.400;17.982;2024-01-11T05:08:52;101878.84;;;2.71;95.71
50364;BME280;36272;59.400;17.982;2024-01-11T05:13:54;101890.25;;;2.72;95.75
50364;BME280;36272;59.400;17.982;2024-01-11T05:18:57;101880.66;;;2.71;95.99
50364;BME280;36272;59.400;17.982;2024-01-11T05:23:59;101896.53;;;2.71;95.97
50364;BME280;36272;59.400;17.982;2024-01-11T05:29:00;101887.75;;;2.70;96.06
50364;BME280;36272;59.400;17.982;2024-01-11T05:34:04;101894.84;;;2.70;95.91
50364;BME280;36272;59.400;17.982;2024-01-11T05:39:05;101910.84;;;2.68;95.99
50364;BME280;36272;59.400;17.982;2024-01-11T05:44:07;101925.03;;;2.67;96.15
50364;BME280;36272;59.400;17.982;2024-01-11T05:49:09;101923.34;;;2.66;95.97
50364;BME280;36272;59.400;17.982;2024-01-11T05:54:10;101922.69;;;2.64;96.12
50364;BME280;36272;59.400;17.982;2024-01-11T05:59:12;101930.03;;;2.60;96.15
50364;BME280;36272;59.400;17.982;2024-01-11T06:04:14;101958.13;;;2.61;95.92
50364;BME280;36272;59.400;17.982;2024-01-11T06:09:15;101965.22;;;2.61;96.11
50364;BME280;36272;59.400;17.982;2024-01-11T06:14:22;101944.22;;;2.59;96.25
50364;BME280;36272;59.400;17.982;2024-01-11T06:19:23;101956.47;;;2.60;95.95
50364;BME280;36272;59.400;17.982;2024-01-11T06:24:25;101995.38;;;2.58;95.96
50364;BME280;36272;59.400;17.982;2024-01-11T06:29:27;101997.34;;;2.56;95.95
50364;BME280;36272;59.400;17.982;2024-01-11T06:34:29;102006.22;;;2.55;95.82
50364;BME280;36272;59.400;17.982;2024-01-11T06:39:31;102021.09;;;2.56;95.75
50364;BME280;36272;59.400;17.982;2024-01-11T06:44:33;102031.69;;;2.56;95.97
50364;BME280;36272;59.400;17.982;2024-01-11T06:49:38;102023.75;;;2.56;95.88
50364;BME280;36272;59.400;17.982;2024-01-11T06:54:40;102044.06;;;2.56;96.01
50364;BME280;36272;59.400;17.982;2024-01-11T06:59:42;102043.47;;;2.52;95.92
50364;BME280;36272;59.400;17.982;2024-01-11T07:04:45;102048.75;;;2.52;95.87
50364;BME280;36272;59.400;17.982;2024-01-11T07:09:46;102077.13;;;2.50;95.58
50364;BME280;36272;59.400;17.982;2024-01-11T07:14:48;102078.09;;;2.49;95.82
50364;BME280;36272;59.400;17.982;2024-01-11T07:19:50;102090.47;;;2.48;95.70
50364;BME280;36272;59.400;17.982;2024-01-11T07:24:52;102104.66;;;2.47;95.94
50364;BME280;36272;59.400;17.982;2024-01-11T07:29:54;102118.84;;;2.46;95.86
50364;BME280;36272;59.400;17.982;2024-01-11T07:34:55;102121.59;;;2.45;95.99
50364;BME280;36272;59.400;17.982;2024-01-11T07:39:57;102125.19;;;2.44;95.90
50364;BME280;36272;59.400;17.982;2024-01-11T07:44:58;102138.69;;;2.41;95.71
50364;BME280;36272;59.400;17.982;2024-01-11T07:50:00;102151.91;;;2.41;95.69
50364;BME280;36272;59.400;17.982;2024-01-11T07:55:03;102128.41;;;2.37;95.68
50364;BME280;36272;59.400;17.982;2024-01-11T08:00:09;102154.81;;;2.37;95.69
50364;BME280;36272;59.400;17.982;2024-01-11T08:05:11;102161.06;;;2.36;95.70
50364;BME280;36272;59.400;17.982;2024-01-11T08:10:13;102182.19;;;2.36;95.56
50364;BME280;36272;59.400;17.982;2024-01-11T08:15:15;102189.41;;;2.34;95.36
50364;BME280;36272;59.400;17.982;2024-01-11T08:20:16;102201.66;;;2.35;95.57
50364;BME280;36272;59.400;17.982;2024-01-11T08:25:18;102213.88;;;2.36;95.61
50364;BME280;36272;59.400;17.982;2024-01-11T08:30:19;102220.84;;;2.37;95.61
50364;BME280;36272;59.400;17.982;2024-01-11T08:35:21;102234.16;;;2.36;95.45
50364;BME280;36272;59.400;17.982;2024-01-11T08:40:23;102242.09;;;2.36;95.61
50364;BME280;36272;59.400;17.982;2024-01-11T08:45:24;102260.19;;;2.41;95.35
50364;BME280;36272;59.400;17.982;2024-01-11T08:50:26;102275.09;;;2.42;94.90
50364;BME280;36272;59.400;17.982;2024-01-11T08:55:27;102294.78;;;2.37;94.57
50364;BME280;36272;59.400;17.982;2024-01-11T09:00:29;102301.41;;;2.32;94.37
50364;BME280;36272;59.400;17.982;2024-01-11T09:05:31;102313.34;;;2.26;93.88
50364;BME280;36272;59.400;17.982;2024-01-11T09:10:33;102304.94;;;2.21;93.86
50364;BME280;36272;59.400;17.982;2024-01-11T09:15:35;102317.44;;;2.19;93.92
50364;BME280;36272;59.400;17.982;2024-01-11T09:20:36;102325.63;;;2.16;93.65
50364;BME280;36272;59.400;17.982;2024-01-11T09:25:38;102323.69;;;2.18;93.50
50364;BME280;36272;59.400;17.982;2024-01-11T09:30:40;102328.00;;;2.19;93.34
50364;BME280;36272;59.400;17.982;2024-01-11T09:35:41;102321.06;;;2.18;93.18
50364;BME280;36272;59.400;17.982;2024-01-11T09:40:43;102322.97;;;2.16;92.90
50364;BME280;36272;59.400;17.982;2024-01-11T09:45:45;102321.69;;;2.10;92.77
50364;BME280;36272;59.400;17.982;2024-01-11T09:50:48;102310.53;;;2.06;92.90
50364;BME280;36272;59.400;17.982;2024-01-11T09:55:50;102329.00;;;2.06;92.86
50364;BME280;36272;59.400;17.982;2024-01-11T10:00:56;102327.94;;;2.09;93.09
50364;BME280;36272;59.400;17.982;2024-01-11T10:05:58;102338.78;;;2.27;93.28
50364;BME280;36272;59.400;17.982;2024-01-11T10:10:59;102373.84;;;2.18;92.75
50364;BME280;36272;59.400;17.982;2024-01-11T10:16:08;102371.47;;;2.15;91.94
50364;BME280;36272;59.400;17.982;2024-01-11T10:21:10;102392.13;;;2.10;91.49
50364;BME280;36272;59.400;17.982;2024-01-11T10:26:15;102383.25;;;2.11;91.57
50364;BME280;36272;59.400;17.982;2024-01-11T10:31:16;102403.41;;;2.12;91.08
50364;BME280;36272;59.400;17.982;2024-01-11T10:36:19;102422.84;;;2.11;91.07
50364;BME280;36272;59.400;17.982;2024-01-11T10:41:21;102431.63;;;2.11;90.82
50364;BME280;36272;59.400;17.982;2024-01-11T10:46:25;102431.47;;;2.13;90.15
50364;BME280;36272;59.400;17.982;2024-01-11T10:51:28;102442.25;;;2.21;89.92
50364;BME280;36272;59.400;17.982;2024-01-11T10:56:31;102455.94;;;2.26;89.96
50364;BME280;36272;59.400;17.982;2024-01-11T11:01:34;102464.56;;;2.28;89.53
50364;BME280;36272;59.400;17.982;2024-01-11T11:06:36;102454.25;;;2.25;89.48
50364;BME280;36272;59.400;17.982;2024-01-11T11:11:38;102464.84;;;2.14;89.43
50364;BME280;36272;59.400;17.982;2024-01-11T11:16:41;102459.09;;;2.08;89.54
50364;BME280;36272;59.400;17.982;2024-01-11T11:21:44;102473.50;;;2.04;89.22
50364;BME280;36272;59.400;17.982;2024-01-11T11:26:46;102479.88;;;2.02;89.56
50364;BME280;36272;59.400;17.982;2024-01-11T11:31:48;102490.66;;;1.99;88.72
50364;BME280;36272;59.400;17.982;2024-01-11T11:36:55;102478.56;;;1.96;88.86
50364;BME280;36272;59.400;17.982;2024-01-11T11:41:58;102495.72;;;1.90;88.07
50364;BME280;36272;59.400;17.982;2024-01-11T11:47:21;102493.22;;;1.89;88.56
50364;BME280;36272;59.400;17.982;2024-01-11T11:52:24;102494.16;;;1.88;89.03
50364;BME280;36272;59.400;17.982;2024-01-11T11:57:26;102503.28;;;1.95;89.25
50364;BME280;36272;59.400;17.982;2024-01-11T12:02:29;102502.53;;;2.04;89.00
50364;BME280;36272;59.400;17.982;2024-01-11T12:07:31;102506.84;;;2.05;87.31
50364;BME280;36272;59.400;17.982;2024-01-11T12:12:36;102507.72;;;2.06;87.71
50364;BME280;36272;59.400;17.982;2024-01-11T12:17:38;102516.28;;;2.31;88.66
50364;BME280;36272;59.400;17.982;2024-01-11T12:22:43;102535.94;;;3.15;85.88
50364;BME280;36272;59.400;17.982;2024-01-11T12:27:45;102540.84;;;3.19;84.41
50364;BME280;36272;59.400;17.982;2024-01-11T12:32:47;102551.06;;;2.91;84.71
50364;BME280;36272;59.400;17.982;2024-01-11T12:38:05;102542.75;;;2.63;85.24
50364;BME280;36272;59.400;17.982;2024-01-11T12:43:11;102546.63;;;2.59;85.79
50364;BME280;36272;59.400;17.982;2024-01-11T12:48:13;102554.13;;;2.75;84.96
50364;BME280;36272;59.400;17.982;2024-01-11T12:53:15;102569.75;;;2.67;84.68
50364;BME280;36272;59.400;17.982;2024-01-11T12:58:21;102562.47;;;2.48;85.45
50364;BME280;36272;59.400;17.982;2024-01-11T13:03:24;102549.56;;;2.33;85.73
50364;BME280;36272;59.400;17.982;2024-01-11T13:08:26;102568.78;;;2.24;86.58
50364;BME280;36272;59.400;17.982;2024-01-11T13:13:28;102577.31;;;2.16;86.08
50364;BME280;36272;59.400;17.982;2024-01-11T13:18:32;102574.28;;;2.10;86.43
50364;BME280;36272;59.400;17.982;2024-01-11T13:23:33;102586.28;;;2.02;86.52
50364;BME280;36272;59.400;17.982;2024-01-11T13:28:35;102599.03;;;1.97;86.64
50364;BME280;36272;59.400;17.982;2024-01-11T13:33:37;102587.13;;;1.91;86.58
50364;BME280;36272;59.400;17.982;2024-01-11T13:38:39;102602.47;;;1.86;87.30
50364;BME280;36272;59.400;17.982;2024-01-11T13:43:41;102595.75;;;1.82;87.18
50364;BME280;36272;59.400;17.982;2024-01-11T13:48:42;102604.75;;;1.80;87.89
50364;BME280;36272;59.400;17.982;2024-01-11T13:53:44;102605.72;;;1.78;88.29
50364;BME280;36272;59.400;17.982;2024-01-11T13:58:46;102599.72;;;1.76;88.31
50364;BME280;36272;59.400;17.982;2024-01-11T14:03:47;102604.50;;;1.71;88.21
50364;BME280;36272;59.400;17.982;2024-01-11T14:08:49;102606.41;;;1.69;88.22
50364;BME280;36272;59.400;17.982;2024-01-11T14:13:51;102600.31;;;1.69;88.45
50364;BME280;36272;59.400;17.982;2024-01-11T14:18:52;102595.28;;;1.66;88.46
50364;BME280;36272;59.400;17.982;2024-01-11T14:23:54;102601.50;;;1.65;88.21
50364;BME280;36272;59.400;17.982;2024-01-11T14:28:56;102603.50;;;1.61;88.43
50364;BME280;36272;59.400;17.982;2024-01-11T14:33:57;102600.88;;;1.61;88.47
50364;BME280;36272;59.400;17.982;2024-01-11T14:38:59;102620.44;;;1.58;88.72
50364;BME280;36272;59.400;17.982;2024-01-11T14:44:01;102616.94;;;1.58;88.46
50364;BME280;36272;59.400;17.982;2024-01-11T14:49:02;102615.63;;;1.52;88.71
50364;BME280;36272;59.400;17.982;2024-01-11T14:54:05;102633.25;;;1.52;88.88
50364;BME280;36272;59.400;17.982;2024-01-11T14:59:07;102639.25;;;1.54;89.23
50364;BME280;36272;59.400;17.982;2024-01-11T15:04:08;102638.41;;;1.53;89.47
50364;BME280;36272;59.400;17.982;2024-01-11T15:09:10;102643.31;;;1.46;89.48
50364;BME280;36272;59.400;17.982;2024-01-11T15:14:13;102657.22;;;1.48;89.59
50364;BME280;36272;59.400;17.982;2024-01-11T15:19:15;102661.84;;;1.45;89.45
50364;BME280;36272;59.400;17.982;2024-01-11T15:24:17;102666.31;;;1.44;89.97
50364;BME280;36272;59.400;17.982;2024-01-11T15:29:20;102667.25;;;1.43;90.07
50364;BME280;36272;59.400;17.982;2024-01-11T15:34:21;102650.59;;;1.43;90.38
50364;BME280;36272;59.400;17.982;2024-01-11T15:39:23;102661.03;;;1.44;90.45
50364;BME280;36272;59.400;17.982;2024-01-11T15:44:26;102636.56;;;1.42;90.45
50364;BME280;36272;59.400;17.982;2024-01-11T15:49:28;102646.16;;;1.43;90.32
50364;BME280;36272;59.400;17.982;2024-01-11T15:54:29;102645.44;;;1.41;90.68
50364;BME280;36272;59.400;17.982;2024-01-11T15:59:31;102632.13;;;1.43;90.87
50364;BME280;36272;59.400;17.982;2024-01-11T16:04:33;102622.66;;;1.40;91.10
50364;BME280;36272;59.400;17.982;2024-01-11T16:09:34;102625.16;;;1.42;91.25
50364;BME280;36272;59.400;17.982;2024-01-11T16:14:36;102626.03;;;1.42;90.87
50364;BME280;36272;59.400;17.982;2024-01-11T16:19:37;102625.88;;;1.44;91.24
50364;BME280;36272;59.400;17.982;2024-01-11T16:24:39;102627.69;;;1.43;91.19
50364;BME280;36272;59.400;17.982;2024-01-11T16:29:42;102634.66;;;1.44;91.13
50364;BME280;36272;59.400;17.982;2024-01-11T16:34:44;102640.88;;;1.43;90.88
50364;BME280;36272;59.400;17.982;2024-01-11T16:39:45;102636.56;;;1.42;91.05
50364;BME280;36272;59.400;17.982;2024-01-11T16:44:47;102629.72;;;1.40;91.05
50364;BME280;36272;59.400;17.982;2024-01-11T16:49:50;102642.91;;;1.40;90.81
50364;BME280;36272;59.400;17.982;2024-01-11T16:54:51;102627.94;;;1.40;90.95
50364;BME280;36272;59.400;17.982;2024-01-11T16:59:53;102626.47;;;1.36;90.91
50364;BME280;36272;59.400;17.982;2024-01-11T17:04:54;102626.47;;;1.36;91.43
50364;BME280;36272;59.400;17.982;2024-01-11T17:10:12;102611.59;;;1.35;91.35
50364;BME280;36272;59.400;17.982;2024-01-11T17:15:16;102611.84;;;1.32;91.65
50364;BME280;36272;59.400;17.982;2024-01-11T17:20:18;102619.88;;;1.30;91.03
50364;BME280;36272;59.400;17.982;2024-01-11T17:25:20;102612.56;;;1.34;91.25
50364;BME280;36272;59.400;17.982;2024-01-11T17:30:22;102623.09;;;1.34;91.44
50364;BME280;36272;59.400;17.982;2024-01-11T17:35:23;102617.09;;;1.32;91.27
50364;BME280;36272;59.400;17.982;2024-01-11T17:40:25;102614.47;;;1.32;91.35
50364;BME280;36272;59.400;17.982;2024-01-11T17:45:32;102590.88;;;1.30;91.50
50364;BME280;36272;59.400;17.982;2024-01-11T17:50:38;102595.88;;;1.33;91.58
50364;BME280;36272;59.400;17.982;2024-01-11T17:55:43;102573.97;;;1.33;91.53
50364;BME280;36272;59.400;17.982;2024-01-11T18:00:48;102570.59;;;1.31;91.71
50364;BME280;36272;59.400;17.982;2024-01-11T18:05:50;102566.19;;;1.31;91.83
50364;BME280;36272;59.400;17.982;2024-01-11T18:10:51;102571.44;;;1.31;91.71
50364;BME280;36272;59.400;17.982;2024-01-11T18:15:53;102564.38;;;1.32;91.89
50364;BME280;36272;59.400;17.982;2024-01-11T18:20:54;102552.03;;;1.32;91.74
50364;BME280;36272;59.400;17.982;2024-01-11T18:25:56;102550.22;;;1.33;91.62
50364;BME280;36272;59.400;17.982;2024-01-11T18:30:58;102558.13;;;1.33;91.71
50364;BME280;36272;59.400;17.982;2024-01-11T18:35:59;102556.69;;;1.29;91.66
50364;BME280;36272;59.400;17.982;2024-01-11T18:41:01;102541.72;;;1.29;91.69
50364;BME280;36272;59.400;17.982;2024-01-11T18:46:03;102545.09;;;1.31;91.67
50364;BME280;36272;59.400;17.982;2024-01-11T18:51:04;102547.81;;;1.30;91.64
50364;BME280;36272;59.400;17.982;2024-01-11T18:56:19;102535.59;;;1.29;91.99
50364;BME280;36272;59.400;17.982;2024-01-11T19:01:21;102531.28;;;1.28;91.89
50364;BME280;36272;59.400;17.982;2024-01-11T19:06:26;102517.63;;;1.34;92.57
50364;BME280;36272;59.400;17.982;2024-01-11T19:11:28;102511.72;;;1.19;92.36
50364;BME280;36272;59.400;17.982;2024-01-11T19:16:30;102520.19;;;1.11;92.29
50364;BME280;36272;59.400;17.982;2024-01-11T19:21:32;102523.56;;;1.13;92.31
50364;BME280;36272;59.400;17.982;2024-01-11T19:26:35;102515.41;;;1.16;92.18
50364;BME280;36272;59.400;17.982;2024-01-11T19:31:39;102499.81;;;1.13;91.90
50364;BME280;36272;59.400;17.982;2024-01-11T19:36:41;102505.38;;;1.10;92.05
50364;BME280;36272;59.400;17.982;2024-01-11T19:41:46;102493.13;;;1.09;92.39
50364;BME280;36272;59.400;17.982;2024-01-11T19:52:02;102473.81;;;1.09;92.15
50364;BME280;36272;59.400;17.982;2024-01-11T19:57:12;102455.25;;;0.99;92.17
50364;BME280;36272;59.400;17.982;2024-01-11T20:02:14;102456.31;;;0.96;91.95
50364;BME280;36272;59.400;17.982;2024-01-11T20:07:16;102456.31;;;0.96;92.05
50364;BME280;36272;59.400;17.982;2024-01-11T20:12:18;102445.16;;;0.93;91.90
50364;BME280;36272;59.400;17.982;2024-01-11T20:17:20;102450.44;;;0.93;92.13
50364;BME280;36272;59.400;17.982;2024-01-11T20:22:21;102444.53;;;0.89;92.13
50364;BME280;36272;59.400;17.982;2024-01-11T20:27:23;102440.25;;;0.88;92.02
50364;BME280;36272;59.400;17.982;2024-01-11T20:32:25;102435.09;;;0.86;92.05
50364;BME280;36272;59.400;17.982;2024-01-11T20:37:26;102430.75;;;0.85;92.02
50364;BME280;36272;59.400;17.982;2024-01-11T20:42:28;102420.59;;;0.81;91.91
50364;BME280;36272;59.400;17.982;2024-01-11T20:47:30;102412.06;;;0.77;91.80
50364;BME280;36272;59.400;17.982;2024-01-11T20:52:36;102397.19;;;0.76;91.91
50364;BME280;36272;59.400;17.982;2024-01-11T20:57:38;102390.25;;;0.75;92.03
50364;BME280;36272;59.400;17.982;2024-01-11T21:02:42;102374.44;;;0.75;92.09
50364;BME280;36272;59.400;17.982;2024-01-11T21:07:52;102375.16;;;0.77;91.95
50364;BME280;36272;59.400;17.982;2024-01-11T21:12:54;102373.72;;;0.73;91.78
50364;BME280;36272;59.400;17.982;2024-01-11T21:17:55;102380.91;;;0.71;91.95
50364;BME280;36272;59.400;17.982;2024-01-11T21:22:57;102379.13;;;0.71;91.99
50364;BME280;36272;59.400;17.982;2024-01-11T21:27:59;102373.00;;;0.71;91.86
50364;BME280;36272;59.400;17.982;2024-01-11T21:33:04;102380.81;;;0.72;91.97
50364;BME280;36272;59.400;17.982;2024-01-11T21:38:05;102369.78;;;0.67;91.82
50364;BME280;36272;59.400;17.982;2024-01-11T21:43:08;102368.81;;;0.68;92.01
50364;BME280;36272;59.400;17.982;2024-01-11T21:48:09;102373.00;;;0.71;92.05
50364;BME280;36272;59.400;17.982;2024-01-11T21:53:11;102363.31;;;0.71;92.02
50364;BME280;36272;59.400;17.982;2024-01-11T21:58:13;102360.56;;;0.73;91.77
50364;BME280;36272;59.400;17.982;2024-01-11T22:03:22;102328.94;;;0.73;91.96
50364;BME280;36272;59.400;17.982;2024-01-11T22:08:24;102333.03;;;0.77;91.94
50364;BME280;36272;59.400;17.982;2024-01-11T22:13:26;102325.13;;;0.77;92.37
50364;BME280;36272;59.400;17.982;2024-01-11T22:18:30;102309.22;;;0.79;92.15
50364;BME280;36272;59.400;17.982;2024-01-11T22:23:31;102301.91;;;0.82;92.41
50364;BME280;36272;59.400;17.982;2024-01-11T22:28:33;102293.03;;;0.83;92.44
50364;BME280;36272;59.400;17.982;2024-01-11T22:33:35;102277.22;;;0.83;92.57
50364;BME280;36272;59.400;17.982;2024-01-11T22:38:37;102266.69;;;0.83;92.76
50364;BME280;36272;59.400;17.982;2024-01-11T22:43:39;102252.78;;;0.81;92.72
50364;BME280;36272;59.400;17.982;2024-01-11T22:48:41;102222.03;;;0.82;92.82
50364;BME280;36272;59.400;17.982;2024-01-11T22:53:42;102218.53;;;0.81;93.25
50364;BME280;36272;59.400;17.982;2024-01-11T22:58:46;102207.03;;;0.82;93.53
50364;BME280;36272;59.400;17.982;2024-01-11T23:04:10;102191.97;;;0.84;93.91
50364;BME280;36272;59.400;17.982;2024-01-11T23:09:11;102187.63;;;0.83;93.71
50364;BME280;36272;59.400;17.982;2024-01-11T23:14:13;102167.28;;;0.85;93.77
50364;BME280;36272;59.400;17.982;2024-01-11T23:19:15;102143.81;;;0.82;93.73
50364;BME280;36272;59.400;17.982;2024-01-11T23:24:17;102134.94;;;0.83;93.99
50364;BME280;36272;59.400;17.982;2024-01-11T23:29:19;102126.94;;;0.85;93.97
50364;BME280;36272;59.400;17.982;2024-01-11T23:34:20;102107.66;;;0.84;93.99
50364;BME280;36272;59.400;17.982;2024-01-11T23:39:22;102096.16;;;0.85;94.18
50364;BME280;36272;59.400;17.982;2024-01-11T23:44:24;102093.25;;;0.88;94.36
50364;BME280;36272;59.400;17.982;2024-01-11T23:49:25;102088.00;;;0.88;94.30
50364;BME280;36272;59.400;17.982;2024-01-11T23:54:32;102062.47;;;0.89;94.39
50364;BME280;36272;59.400;17.982;2024-01-11T23:59:33;102056.84;;;0.94;94.20
